createdAt,value
2022-10-17T00:00:05.119Z,7
2022-10-17T00:02:05.211Z,8
2022-10-17T00:04:05.297Z,7
2022-10-17T00:06:05.378Z,7
2022-10-17T00:08:05.471Z,6
2022-10-17T00:10:05.558Z,7
2022-10-17T00:12:05.649Z,7
2022-10-17T00:14:05.730Z,7
2022-10-17T00:16:05.849Z,9
2022-10-17T00:18:05.905Z,6
2022-10-17T00:20:05.993Z,7
2022-10-17T00:22:06.077Z,7
2022-10-17T00:24:06.174Z,8
2022-10-17T00:26:06.265Z,7
2022-10-17T00:28:06.356Z,6
2022-10-17T00:30:06.440Z,6
2022-10-17T00:32:06.535Z,7
2022-10-17T00:34:36.694Z,7
2022-10-17T00:36:36.806Z,7
2022-10-17T00:38:36.924Z,7
2022-10-17T00:40:37.043Z,8
2022-10-17T00:42:37.153Z,7
2022-10-17T00:44:37.296Z,9
2022-10-17T00:46:37.380Z,9
2022-10-17T00:48:37.491Z,9
2022-10-17T00:50:37.626Z,9
2022-10-17T00:52:37.731Z,8
2022-10-17T00:54:37.854Z,10
2022-10-17T00:56:38.032Z,11
2022-10-17T00:58:38.063Z,10
2022-10-17T01:00:38.171Z,12
2022-10-17T01:02:38.295Z,10
2022-10-17T01:04:38.403Z,9
2022-10-17T01:06:38.535Z,11
2022-10-17T01:08:38.652Z,10
2022-10-17T01:10:38.771Z,9
2022-10-17T01:12:38.861Z,10
2022-10-17T01:14:38.943Z,10
2022-10-17T01:16:39.139Z,10
2022-10-17T01:18:39.150Z,10
2022-10-17T01:20:39.264Z,11
2022-10-17T01:22:39.357Z,12
2022-10-17T01:24:39.464Z,12
2022-10-17T01:26:39.568Z,11
2022-10-17T01:28:39.736Z,11
2022-10-17T01:30:39.736Z,11
2022-10-17T01:32:39.839Z,11
2022-10-17T01:34:39.946Z,12
2022-10-17T01:36:40.175Z,12
2022-10-17T01:38:40.143Z,12
2022-10-17T01:40:40.348Z,14
2022-10-17T01:42:40.368Z,13
2022-10-17T01:44:40.471Z,15
2022-10-17T01:46:40.575Z,16
2022-10-17T01:48:40.702Z,14
2022-10-17T01:50:40.776Z,13
2022-10-17T01:52:40.887Z,15
2022-10-17T01:54:41.010Z,12
2022-10-17T01:56:41.207Z,14
2022-10-17T01:58:41.267Z,13
2022-10-17T02:00:41.367Z,14
2022-10-17T02:02:41.485Z,13
2022-10-17T02:04:41.599Z,12
2022-10-17T02:06:41.695Z,14
2022-10-17T02:08:41.822Z,13
2022-10-17T02:10:41.901Z,12
2022-10-17T02:12:42.021Z,12
2022-10-17T02:14:42.106Z,13
2022-10-17T02:16:42.251Z,13
2022-10-17T02:18:42.293Z,11
2022-10-17T02:20:42.384Z,10
2022-10-17T02:22:42.491Z,10
2022-10-17T02:24:42.587Z,9
2022-10-17T02:26:42.664Z,9
2022-10-17T02:28:43.047Z,8
2022-10-17T02:30:42.856Z,10
2022-10-17T02:32:46.578Z,9
2022-10-17T02:34:43.090Z,7
2022-10-17T02:36:43.179Z,8
2022-10-17T02:38:43.249Z,8
2022-10-17T02:40:43.348Z,9
2022-10-17T02:42:43.462Z,11
2022-10-17T02:44:43.563Z,8
2022-10-17T02:48:43.751Z,9
2022-10-17T02:50:43.865Z,8
2022-10-17T02:52:43.945Z,9
2022-10-17T02:54:44.059Z,9
2022-10-17T02:56:44.202Z,9
2022-10-17T02:58:44.244Z,8
2022-10-17T03:02:44.445Z,9
2022-10-17T03:04:44.526Z,8
2022-10-17T03:06:44.610Z,8
2022-10-17T03:08:44.707Z,8
2022-10-17T03:10:44.800Z,7
2022-10-17T03:12:44.884Z,8
2022-10-17T03:14:44.972Z,7
2022-10-17T03:16:45.065Z,8
2022-10-17T03:18:47.921Z,7
2022-10-17T03:20:45.253Z,7
2022-10-17T03:24:45.458Z,8
2022-10-17T03:28:46.254Z,8
2022-10-17T03:30:45.767Z,7
2022-10-17T03:32:45.872Z,7
2022-10-17T03:34:45.969Z,7
2022-10-17T03:36:46.080Z,8
2022-10-17T03:38:46.176Z,9
2022-10-17T03:40:46.264Z,7
2022-10-17T03:42:46.362Z,6
2022-10-17T03:44:46.461Z,7
2022-10-17T03:46:46.568Z,7
2022-10-17T03:48:46.661Z,5
2022-10-17T03:50:46.771Z,6
2022-10-17T03:52:46.856Z,6
2022-10-17T03:54:46.938Z,7
2022-10-17T03:56:47.137Z,8
2022-10-17T03:58:47.115Z,6
2022-10-17T04:00:47.222Z,8
2022-10-17T04:02:47.318Z,8
2022-10-17T04:04:47.405Z,7
2022-10-17T04:06:47.512Z,6
2022-10-17T04:08:47.604Z,7
2022-10-17T04:10:47.703Z,7
2022-10-17T04:12:47.800Z,6
2022-10-17T04:14:47.885Z,7
2022-10-17T04:16:48.080Z,6
2022-10-17T04:18:48.171Z,6
2022-10-17T04:20:48.156Z,10
2022-10-17T04:22:48.257Z,7
2022-10-17T04:24:48.366Z,7
2022-10-17T04:26:48.442Z,9
2022-10-17T04:28:48.538Z,11
2022-10-17T04:30:49.968Z,10
2022-10-17T04:32:48.729Z,10
2022-10-17T04:34:48.852Z,11
2022-10-17T04:36:48.908Z,9
2022-10-17T04:38:49.046Z,9
2022-10-17T04:40:49.093Z,10
2022-10-17T04:42:49.186Z,9
2022-10-17T04:44:49.300Z,9
2022-10-17T04:46:49.392Z,8
2022-10-17T04:48:49.471Z,9
2022-10-17T04:50:49.560Z,9
2022-10-17T04:52:49.649Z,14
2022-10-17T04:54:49.968Z,11
2022-10-17T04:56:49.890Z,12
2022-10-17T04:58:49.939Z,13
2022-10-17T05:00:50.096Z,13
2022-10-17T05:02:50.105Z,14
2022-10-17T05:04:50.218Z,13
2022-10-17T05:06:50.299Z,13
2022-10-17T05:08:50.380Z,15
2022-10-17T05:10:50.515Z,13
2022-10-17T05:12:50.593Z,12
2022-10-17T05:14:50.652Z,12
2022-10-17T05:16:50.739Z,13
2022-10-17T05:18:52.798Z,12
2022-10-17T05:20:50.915Z,11
2022-10-17T05:22:51.002Z,13
2022-10-17T05:24:51.100Z,12
2022-10-17T05:26:51.181Z,11
2022-10-17T05:28:51.271Z,11
2022-10-17T05:30:51.339Z,11
2022-10-17T05:32:51.451Z,12
2022-10-17T05:34:51.560Z,13
2022-10-17T05:36:51.602Z,13
2022-10-17T05:38:51.680Z,12
2022-10-17T05:40:51.767Z,13
2022-10-17T05:42:51.944Z,14
2022-10-17T05:44:51.956Z,13
2022-10-17T05:46:52.048Z,13
2022-10-17T05:48:52.158Z,14
2022-10-17T05:51:22.275Z,13
2022-10-17T05:53:22.398Z,15
2022-10-17T05:55:22.519Z,13
2022-10-17T05:57:22.625Z,14
2022-10-17T05:59:22.728Z,11
2022-10-17T06:01:22.850Z,13
2022-10-17T06:03:22.957Z,14
2022-10-17T06:05:23.078Z,12
2022-10-17T06:07:23.186Z,14
2022-10-17T06:09:23.308Z,16
2022-10-17T06:11:23.419Z,13
2022-10-17T06:13:23.546Z,13
2022-10-17T06:15:23.684Z,15
2022-10-17T06:17:24.055Z,20
2022-10-17T06:19:23.867Z,16
2022-10-17T06:21:23.987Z,15
2022-10-17T06:23:24.087Z,14
2022-10-17T06:25:24.286Z,13
2022-10-17T06:27:24.323Z,14
2022-10-17T06:29:24.434Z,16
2022-10-17T06:31:24.542Z,16
2022-10-17T06:33:24.660Z,17
2022-10-17T06:35:24.781Z,18
2022-10-17T06:37:24.892Z,21
2022-10-17T06:39:25.013Z,19
2022-10-17T06:41:25.116Z,16
2022-10-17T06:43:27.852Z,20
2022-10-17T06:45:25.342Z,22
2022-10-17T06:47:25.448Z,22
2022-10-17T06:49:25.613Z,25
2022-10-17T06:51:25.668Z,23
2022-10-17T06:53:25.783Z,25
2022-10-17T06:55:25.904Z,25
2022-10-17T06:57:26.273Z,30
2022-10-17T06:59:26.106Z,32
2022-10-17T07:01:26.219Z,32
2022-10-17T07:03:26.330Z,31
2022-10-17T07:05:26.440Z,30
2022-10-17T07:07:26.658Z,27
2022-10-17T07:09:26.651Z,29
2022-10-17T07:11:26.745Z,26
2022-10-17T07:13:26.870Z,27
2022-10-17T07:15:26.957Z,25
2022-10-17T07:17:27.239Z,29
2022-10-17T07:19:27.167Z,27
2022-10-17T07:21:27.268Z,26
2022-10-17T07:23:27.387Z,28
2022-10-17T07:25:27.495Z,24
2022-10-17T07:27:27.969Z,25
2022-10-17T07:29:27.697Z,25
2022-10-17T07:31:27.825Z,27
2022-10-17T07:33:27.880Z,23
2022-10-17T07:35:27.991Z,24
2022-10-17T07:37:28.340Z,24
2022-10-17T07:39:28.210Z,20
2022-10-17T07:41:28.332Z,20
2022-10-17T07:43:28.431Z,19
2022-10-17T07:45:28.544Z,18
2022-10-17T07:47:29.001Z,16
2022-10-17T07:49:28.762Z,16
2022-10-17T07:51:28.863Z,16
2022-10-17T07:53:28.998Z,17
2022-10-17T07:55:29.061Z,22
2022-10-17T07:57:29.150Z,18
2022-10-17T07:59:29.267Z,20
2022-10-17T08:01:29.363Z,21
2022-10-17T08:03:29.475Z,26
2022-10-17T08:05:29.591Z,20
2022-10-17T08:07:29.733Z,21
2022-10-17T08:09:29.806Z,20
2022-10-17T08:11:29.863Z,23
2022-10-17T08:13:29.966Z,20
2022-10-17T08:15:31.898Z,18
2022-10-17T08:17:30.149Z,22
2022-10-17T08:19:30.237Z,21
2022-10-17T08:23:30.423Z,19
2022-10-17T08:25:30.493Z,18
2022-10-17T08:27:30.632Z,16
2022-10-17T08:29:30.697Z,20
2022-10-17T08:31:30.772Z,19
2022-10-17T08:33:30.871Z,17
2022-10-17T08:35:30.972Z,17
2022-10-17T08:37:31.668Z,16
2022-10-17T08:39:31.162Z,18
2022-10-17T08:41:31.267Z,16
2022-10-17T08:43:35.194Z,16
2022-10-17T08:45:31.442Z,16
2022-10-17T08:47:31.888Z,18
2022-10-17T08:49:31.610Z,15
2022-10-17T08:51:31.711Z,18
2022-10-17T08:53:31.802Z,15
2022-10-17T08:55:31.894Z,16
2022-10-17T08:57:32.606Z,16
2022-10-17T08:59:32.084Z,13
2022-10-17T09:01:32.178Z,16
2022-10-17T09:03:32.280Z,13
2022-10-17T09:05:32.359Z,16
2022-10-17T09:07:32.856Z,16
2022-10-17T09:09:32.538Z,15
2022-10-17T09:11:32.626Z,15
2022-10-17T09:13:32.770Z,15
2022-10-17T09:15:32.809Z,16
2022-10-17T09:19:33.110Z,15
2022-10-17T09:21:33.041Z,14
2022-10-17T09:23:33.132Z,12
2022-10-17T09:25:33.219Z,15
2022-10-17T09:27:33.388Z,16
2022-10-17T09:29:37.891Z,15
2022-10-17T09:31:33.474Z,14
2022-10-17T09:33:42.548Z,14
2022-10-17T09:35:33.641Z,15
2022-10-17T09:37:33.726Z,14
2022-10-17T09:40:03.918Z,14
2022-10-17T09:42:03.997Z,12
2022-10-17T09:44:04.085Z,15
2022-10-17T09:46:04.183Z,15
2022-10-17T09:48:04.311Z,14
2022-10-17T09:50:04.403Z,13
2022-10-17T09:52:04.518Z,12
2022-10-17T09:54:04.637Z,12
2022-10-17T09:56:04.749Z,13
2022-10-17T09:58:04.853Z,12
2022-10-17T10:00:05.077Z,13
2022-10-17T10:02:05.088Z,12
2022-10-17T10:04:05.168Z,11
2022-10-17T10:06:05.287Z,11
2022-10-17T10:08:05.395Z,12
2022-10-17T10:10:05.515Z,10
2022-10-17T10:12:05.610Z,13
2022-10-17T10:14:05.729Z,11
2022-10-17T10:16:05.825Z,9
2022-10-17T10:18:05.957Z,9
2022-10-17T10:20:06.024Z,10
2022-10-17T10:22:06.138Z,9
2022-10-17T10:24:06.239Z,11
2022-10-17T10:26:06.334Z,7
2022-10-17T10:28:06.467Z,8
2022-10-17T10:30:06.561Z,9
2022-10-17T10:32:13.843Z,8
2022-10-17T10:34:06.736Z,12
2022-10-17T10:36:06.831Z,9
2022-10-17T10:38:06.943Z,10
2022-10-17T10:40:07.022Z,10
2022-10-17T10:42:07.111Z,11
2022-10-17T10:44:07.210Z,9
2022-10-17T10:46:07.313Z,10
2022-10-17T10:48:07.442Z,10
2022-10-17T10:50:07.541Z,7
2022-10-17T10:52:07.612Z,8
2022-10-17T10:54:07.713Z,8
2022-10-17T10:56:07.818Z,9
2022-10-17T10:58:07.909Z,8
2022-10-17T11:00:08.011Z,7
2022-10-17T11:02:08.113Z,9
2022-10-17T11:04:08.200Z,6
2022-10-17T11:06:08.297Z,8
2022-10-17T11:08:08.392Z,6
2022-10-17T11:10:08.546Z,7
2022-10-17T11:12:08.594Z,6
2022-10-17T11:14:11.675Z,5
2022-10-17T11:16:08.758Z,6
2022-10-17T11:18:08.854Z,6
2022-10-17T11:20:08.956Z,7
2022-10-17T11:22:09.040Z,8
2022-10-17T11:24:09.283Z,7
2022-10-17T11:26:09.230Z,5
2022-10-17T11:28:09.317Z,7
2022-10-17T11:30:09.459Z,6
2022-10-17T11:32:09.505Z,6
2022-10-17T11:34:09.599Z,8
2022-10-17T11:36:09.687Z,6
2022-10-17T11:38:09.801Z,6
2022-10-17T11:40:09.867Z,7
2022-10-17T11:42:09.929Z,7
2022-10-17T11:44:10.013Z,6
2022-10-17T11:46:10.077Z,5
2022-10-17T11:48:10.169Z,6
2022-10-17T11:52:55.952Z,6
2022-10-17T11:54:40.500Z,7
2022-10-17T11:56:42.926Z,6
2022-10-17T11:58:40.702Z,5
2022-10-17T12:00:42.135Z,6
2022-10-17T12:02:40.902Z,4
2022-10-17T12:04:43.771Z,5
2022-10-17T12:06:41.128Z,6
2022-10-17T12:08:41.248Z,7
2022-10-17T12:10:41.457Z,6
2022-10-17T12:14:41.575Z,4
2022-10-17T12:18:41.786Z,6
2022-10-17T12:20:41.902Z,6
2022-10-17T12:22:42.065Z,4
2022-10-17T12:24:42.105Z,7
2022-10-17T12:26:42.216Z,6
2022-10-17T12:28:42.465Z,4
2022-10-17T12:30:42.417Z,8
2022-10-17T12:33:03.751Z,7
2022-10-17T12:36:42.691Z,6
2022-10-17T12:38:44.897Z,7
2022-10-17T12:40:47.730Z,5
2022-10-17T12:42:43.005Z,4
2022-10-17T12:44:44.827Z,6
2022-10-17T12:46:43.204Z,6
2022-10-17T12:48:43.303Z,5
2022-10-17T12:50:43.437Z,6
2022-10-17T12:52:43.520Z,10
2022-10-17T12:54:47.653Z,6
2022-10-17T12:56:43.636Z,4
2022-10-17T12:58:43.737Z,3
2022-10-17T13:00:54.588Z,3
2022-10-17T13:02:43.925Z,4
2022-10-17T13:04:44.026Z,4
2022-10-17T13:06:44.110Z,3
2022-10-17T13:08:44.211Z,4
2022-10-17T13:10:44.354Z,4
2022-10-17T13:12:44.401Z,8
2022-10-17T13:14:44.499Z,6
2022-10-17T13:16:44.596Z,4
2022-10-17T13:18:44.694Z,3
2022-10-17T13:20:44.769Z,3
2022-10-17T13:22:44.859Z,4
2022-10-17T13:26:45.042Z,4
2022-10-17T13:28:45.148Z,3
2022-10-17T13:30:45.332Z,7
2022-10-17T13:32:45.283Z,3
2022-10-17T13:34:45.346Z,4
2022-10-17T13:36:48.610Z,4
2022-10-17T13:38:45.532Z,5
2022-10-17T13:40:50.172Z,4
2022-10-17T13:42:45.699Z,6
2022-10-17T13:45:15.856Z,7
2022-10-17T13:47:15.973Z,9
2022-10-17T13:49:16.074Z,7
2022-10-17T13:51:16.234Z,5
2022-10-17T13:53:16.307Z,7
2022-10-17T13:55:17.517Z,6
2022-10-17T13:57:16.506Z,4
2022-10-17T13:59:16.613Z,5
2022-10-17T14:01:16.889Z,5
2022-10-17T14:03:16.835Z,5
2022-10-17T14:05:18.779Z,5
2022-10-17T14:07:17.189Z,6
2022-10-17T14:09:17.152Z,4
2022-10-17T14:11:17.253Z,6
2022-10-17T14:13:17.391Z,7
2022-10-17T14:15:17.449Z,6
2022-10-17T14:17:17.552Z,4
2022-10-17T14:19:17.655Z,7
2022-10-17T14:21:43.245Z,7
2022-10-17T14:23:22.844Z,3
2022-10-17T14:25:17.935Z,6
2022-10-17T14:27:21.586Z,5
2022-10-17T14:29:18.173Z,6
2022-10-17T14:31:18.288Z,5
2022-10-17T14:33:18.352Z,7
2022-10-17T14:35:40.648Z,10
2022-10-17T14:37:18.526Z,4
2022-10-17T14:39:18.610Z,8
2022-10-17T14:43:18.842Z,9
2022-10-17T14:45:22.744Z,8
2022-10-17T14:49:23.385Z,5
2022-10-17T14:51:19.207Z,9
2022-10-17T14:53:19.310Z,8
2022-10-17T14:55:19.408Z,6
2022-10-17T14:57:19.505Z,8
2022-10-17T14:59:35.537Z,9
2022-10-17T15:01:19.709Z,6
2022-10-17T15:03:19.829Z,7
2022-10-17T15:05:19.906Z,6
2022-10-17T15:07:20.001Z,5
2022-10-17T15:09:20.097Z,5
2022-10-17T15:11:20.228Z,5
2022-10-17T15:13:29.066Z,5
2022-10-17T15:15:20.363Z,6
2022-10-17T15:17:20.439Z,5
2022-10-17T15:19:20.587Z,7
2022-10-17T15:21:26.627Z,5
2022-10-17T15:23:20.702Z,6
2022-10-17T15:27:20.854Z,6
2022-10-17T15:29:20.937Z,8
2022-10-17T15:31:21.021Z,8
2022-10-17T15:33:21.113Z,8
2022-10-17T15:35:21.211Z,13
2022-10-17T15:37:21.278Z,12
2022-10-17T15:39:21.475Z,14
2022-10-17T15:41:51.519Z,13
2022-10-17T15:43:51.636Z,14
2022-10-17T15:45:51.750Z,12
2022-10-17T15:47:51.870Z,9
2022-10-17T15:49:51.981Z,12
2022-10-17T15:51:55.067Z,35
2022-10-17T15:53:52.199Z,18
2022-10-17T15:55:52.299Z,14
2022-10-17T15:57:52.418Z,9
2022-10-17T15:59:52.541Z,11
2022-10-17T16:01:52.646Z,9
2022-10-17T16:03:52.764Z,8
2022-10-17T16:05:52.860Z,9
2022-10-17T16:07:52.969Z,10
2022-10-17T16:09:53.080Z,9
2022-10-17T16:11:53.203Z,17
2022-10-17T16:13:53.302Z,13
2022-10-17T16:15:53.399Z,11
2022-10-17T16:17:53.513Z,11
2022-10-17T16:21:53.721Z,17
2022-10-17T16:23:53.838Z,18
2022-10-17T16:25:53.945Z,12
2022-10-17T16:27:54.040Z,15
2022-10-17T16:29:54.149Z,12
2022-10-17T16:31:54.259Z,10
2022-10-17T16:33:54.368Z,12
2022-10-17T16:35:54.482Z,12
2022-10-17T16:37:54.590Z,12
2022-10-17T16:39:54.689Z,14
2022-10-17T16:41:57.738Z,8
2022-10-17T16:43:54.909Z,10
2022-10-17T16:45:55.008Z,9
2022-10-17T16:47:55.117Z,9
2022-10-17T16:49:55.237Z,11
2022-10-17T16:51:55.296Z,14
2022-10-17T16:53:55.374Z,12
2022-10-17T16:55:55.478Z,12
2022-10-17T16:57:55.785Z,15
2022-10-17T16:59:55.702Z,13
2022-10-17T17:01:55.793Z,11
2022-10-17T17:03:55.866Z,14
2022-10-17T17:05:55.972Z,13
2022-10-17T17:07:56.068Z,12
2022-10-17T17:09:56.226Z,13
2022-10-17T17:11:56.276Z,12
2022-10-17T17:13:56.378Z,13
2022-10-17T17:15:56.482Z,14
2022-10-17T17:17:57.325Z,11
2022-10-17T17:19:56.658Z,12
2022-10-17T17:21:56.759Z,11
2022-10-17T17:23:56.857Z,11
2022-10-17T17:25:56.935Z,16
2022-10-17T17:27:57.029Z,15
2022-10-17T17:29:57.129Z,15
2022-10-17T17:31:57.202Z,16
2022-10-17T17:33:57.326Z,17
2022-10-17T17:35:57.365Z,15
2022-10-17T17:37:57.475Z,15
2022-10-17T17:39:57.570Z,15
2022-10-17T17:41:57.647Z,16
2022-10-17T17:43:57.726Z,17
2022-10-17T17:45:57.809Z,23
2022-10-17T17:47:57.906Z,21
2022-10-17T17:49:57.982Z,21
2022-10-17T17:51:58.122Z,20
2022-10-17T17:53:58.153Z,22
2022-10-17T17:55:58.216Z,17
2022-10-17T17:57:58.284Z,20
2022-10-17T17:59:58.462Z,20
2022-10-17T18:01:58.514Z,20
2022-10-17T18:03:58.544Z,24
2022-10-17T18:05:58.638Z,18
2022-10-17T18:08:28.799Z,15
2022-10-17T18:10:28.991Z,22
2022-10-17T18:12:29.392Z,21
2022-10-17T18:14:29.286Z,24
2022-10-17T18:16:29.245Z,27
2022-10-17T18:18:29.355Z,32
2022-10-17T18:20:29.473Z,29
2022-10-17T18:22:29.818Z,17
2022-10-17T18:24:29.701Z,14
2022-10-17T18:26:29.820Z,14
2022-10-17T18:28:29.991Z,22
2022-10-17T18:30:33.673Z,62
2022-10-17T18:32:30.429Z,65
2022-10-17T18:34:30.226Z,48
2022-10-17T18:36:30.353Z,27
2022-10-17T18:38:30.457Z,23
2022-10-17T18:40:30.585Z,17
2022-10-17T18:42:30.925Z,15
2022-10-17T18:44:30.788Z,16
2022-10-17T18:46:30.984Z,11
2022-10-17T18:48:31.017Z,11
2022-10-17T18:50:31.112Z,12
2022-10-17T18:52:31.250Z,10
2022-10-17T18:54:31.387Z,12
2022-10-17T18:56:31.443Z,13
2022-10-17T18:58:31.561Z,16
2022-10-17T19:00:31.665Z,16
2022-10-17T19:02:35.531Z,14
2022-10-17T19:04:31.875Z,16
2022-10-17T19:06:32.154Z,13
2022-10-17T19:08:32.083Z,13
2022-10-17T19:10:32.197Z,13
2022-10-17T19:12:32.312Z,18
2022-10-17T19:14:32.470Z,18
2022-10-17T19:16:32.524Z,19
2022-10-17T19:18:32.602Z,21
2022-10-17T19:20:32.704Z,17
2022-10-17T19:22:32.802Z,16
2022-10-17T19:24:32.917Z,16
2022-10-17T19:26:33.016Z,17
2022-10-17T19:28:33.180Z,13
2022-10-17T19:30:33.224Z,14
2022-10-17T19:32:33.642Z,15
2022-10-17T19:34:33.416Z,12
2022-10-17T19:36:33.862Z,13
2022-10-17T19:38:33.622Z,12
2022-10-17T19:40:33.855Z,11
2022-10-17T19:42:33.814Z,12
2022-10-17T19:44:33.931Z,12
2022-10-17T19:46:34.037Z,12
2022-10-17T19:48:34.137Z,12
2022-10-17T19:50:36.677Z,13
2022-10-17T19:52:34.438Z,14
2022-10-17T19:54:34.465Z,15
2022-10-17T19:56:34.543Z,15
2022-10-17T19:58:34.637Z,13
2022-10-17T20:00:34.739Z,13
2022-10-17T20:02:34.821Z,12
2022-10-17T20:04:34.913Z,17
2022-10-17T20:06:35.011Z,15
2022-10-17T20:08:35.112Z,13
2022-10-17T20:10:35.201Z,16
2022-10-17T20:12:35.290Z,12
2022-10-17T20:14:38.693Z,14
2022-10-17T20:16:35.473Z,12
2022-10-17T20:18:35.586Z,11
2022-10-17T20:20:35.683Z,14
2022-10-17T20:22:35.777Z,14
2022-10-17T20:24:35.866Z,14
2022-10-17T20:26:38.652Z,15
2022-10-17T20:28:36.084Z,15
2022-10-17T20:30:36.150Z,11
2022-10-17T20:32:39.610Z,11
2022-10-17T20:34:36.398Z,9
2022-10-17T20:36:36.426Z,11
2022-10-17T20:38:36.527Z,8
2022-10-17T20:40:36.734Z,7
2022-10-17T20:42:36.729Z,7
2022-10-17T20:44:36.817Z,7
2022-10-17T20:46:38.456Z,9
2022-10-17T20:48:36.950Z,7
2022-10-17T20:50:37.065Z,6
2022-10-17T20:52:37.137Z,8
2022-10-17T20:54:37.271Z,8
2022-10-17T20:56:37.327Z,7
2022-10-17T20:58:37.420Z,7
2022-10-17T21:00:37.505Z,8
2022-10-17T21:02:37.595Z,7
2022-10-17T21:04:46.837Z,8
2022-10-17T21:06:37.768Z,10
2022-10-17T21:08:37.851Z,7
2022-10-17T21:10:37.948Z,8
2022-10-17T21:12:53.103Z,8
2022-10-17T21:14:38.135Z,6
2022-10-17T21:16:38.186Z,6
2022-10-17T21:18:38.280Z,7
2022-10-17T21:20:38.370Z,7
2022-10-17T21:22:38.426Z,8
2022-10-17T21:25:08.574Z,8
2022-10-17T21:27:08.704Z,8
2022-10-17T21:29:08.807Z,6
2022-10-17T21:31:08.930Z,8
2022-10-17T21:33:09.088Z,10
2022-10-17T21:35:09.219Z,9
2022-10-17T21:37:09.289Z,8
2022-10-17T21:39:09.405Z,8
2022-10-17T21:41:09.521Z,9
2022-10-17T21:43:09.644Z,8
2022-10-17T21:45:15.648Z,7
2022-10-17T21:47:09.855Z,7
2022-10-17T21:49:09.953Z,7
2022-10-17T21:51:10.070Z,8
2022-10-17T21:53:10.168Z,8
2022-10-17T21:55:10.334Z,8
2022-10-17T21:57:10.471Z,9
2022-10-17T21:59:10.522Z,8
2022-10-17T22:01:10.714Z,7
2022-10-17T22:03:10.743Z,8
2022-10-17T22:05:10.859Z,8
2022-10-17T22:07:10.962Z,7
2022-10-17T22:09:11.087Z,8
2022-10-17T22:11:11.199Z,8
2022-10-17T22:13:11.295Z,8
2022-10-17T22:15:11.516Z,12
2022-10-17T22:17:11.500Z,9
2022-10-17T22:19:11.606Z,8
2022-10-17T22:21:11.731Z,7
2022-10-17T22:23:11.842Z,8
2022-10-17T22:25:11.939Z,9
2022-10-17T22:27:12.064Z,7
2022-10-17T22:31:12.339Z,8
2022-10-17T22:33:12.427Z,8
2022-10-17T22:35:12.531Z,9
2022-10-17T22:37:12.601Z,7
2022-10-17T22:39:12.695Z,6
2022-10-17T22:41:12.795Z,7
2022-10-17T22:43:12.907Z,7
2022-10-17T22:45:13.031Z,8
2022-10-17T22:47:13.136Z,8
2022-10-17T22:49:13.251Z,8
2022-10-17T22:51:13.467Z,8
2022-10-17T22:53:13.438Z,8
2022-10-17T22:55:13.592Z,7
2022-10-17T22:57:13.656Z,8
2022-10-17T22:59:13.766Z,7
2022-10-17T23:01:13.963Z,10
2022-10-17T23:03:13.985Z,9
2022-10-17T23:05:14.075Z,12
2022-10-17T23:07:14.197Z,10
2022-10-17T23:09:14.370Z,12
2022-10-17T23:11:14.403Z,13
2022-10-17T23:13:14.513Z,15
2022-10-17T23:15:14.681Z,14
2022-10-17T23:17:14.686Z,14
2022-10-17T23:19:14.798Z,14
2022-10-17T23:21:14.902Z,15
2022-10-17T23:23:15.012Z,16
2022-10-17T23:25:15.123Z,19
2022-10-17T23:27:15.257Z,16
2022-10-17T23:29:15.325Z,15
2022-10-17T23:31:15.418Z,15
2022-10-17T23:33:15.520Z,13
2022-10-17T23:35:15.662Z,12
2022-10-17T23:37:15.711Z,14
2022-10-17T23:39:15.810Z,12
2022-10-17T23:41:15.904Z,11
2022-10-17T23:43:16.007Z,11
2022-10-17T23:45:16.108Z,11
2022-10-17T23:47:16.214Z,11
2022-10-17T23:49:16.318Z,10
2022-10-17T23:51:16.424Z,10
2022-10-17T23:53:16.520Z,10
2022-10-17T23:55:16.680Z,10
2022-10-17T23:57:16.855Z,11
2022-10-17T23:59:16.828Z,11
